Time;durP1;ratioP1;P1;durP2;ratioP2;P2;SDS_P1;SDS_P2;PMS_P1;PMS_P2;Temp;Humidity;BMP_temperature;BMP_pressure;BME280_temperature;BME280_humidity;BME280_pressure;Samples;Min_cycle;Max_cycle;Signal;HPM_P1;HPM_P2
2022/07/06 00:00:16;;;;;;;2.45;1.20;;;;;;;25.68;26.23;102078.59;5050314;28;20079;-80
2022/07/06 00:02:43;;;;;;;2.20;1.20;;;;;;;25.64;26.22;102075.25;5049087;28;20067;-80
2022/07/06 00:05:10;;;;;;;2.83;1.27;;;;;;;25.60;26.06;102085.00;5059228;28;20045;-81
2022/07/06 00:07:37;;;;;;;2.35;1.45;;;;;;;25.56;26.08;102080.78;5040740;28;20416;-81
2022/07/06 00:10:04;;;;;;;2.60;1.50;;;;;;;25.54;26.02;102088.41;5062924;28;20132;-80
2022/07/06 00:12:30;;;;;;;2.85;1.35;;;;;;;25.49;25.88;102081.63;5045326;28;20049;-80
2022/07/06 00:14:57;;;;;;;3.00;1.33;;;;;;;25.46;26.43;102093.06;5041213;28;20103;-80
2022/07/06 00:17:23;;;;;;;2.80;1.23;;;;;;;25.42;26.17;102087.00;5049620;28;20091;-80
2022/07/06 00:19:50;;;;;;;4.40;1.30;;;;;;;25.38;26.15;102085.59;5043473;28;20041;-80
2022/07/06 00:22:17;;;;;;;2.65;1.38;;;;;;;25.34;26.48;102078.66;5050342;28;20479;-80
2022/07/06 00:24:43;;;;;;;2.78;1.30;;;;;;;25.30;26.34;102080.00;5046449;28;20092;-80
2022/07/06 00:27:10;;;;;;;3.50;1.40;;;;;;;25.27;26.16;102085.91;5046188;28;20470;-80
2022/07/06 00:29:37;;;;;;;2.38;1.30;;;;;;;25.23;26.18;102082.59;5049117;28;20089;-79
2022/07/06 00:32:03;;;;;;;2.47;1.38;;;;;;;25.19;26.42;102075.66;5047514;28;20086;-79
2022/07/06 00:34:30;;;;;;;2.22;1.27;;;;;;;25.17;26.26;102071.28;5052194;28;20095;-80
2022/07/06 00:36:57;;;;;;;2.50;1.30;;;;;;;25.14;26.69;102072.47;5051692;28;20178;-79
2022/07/06 00:39:28;;;;;;;2.92;1.60;;;;;;;25.10;26.71;102071.09;5062017;28;20119;-80
2022/07/06 00:41:57;;;;;;;3.03;1.42;;;;;;;25.07;26.91;102079.75;5043430;28;20045;-80
2022/07/06 00:44:23;;;;;;;2.70;1.23;;;;;;;25.05;26.63;102075.38;5046843;28;20491;-80
2022/07/06 00:46:50;;;;;;;2.15;1.48;;;;;;;25.02;26.78;102082.19;5047647;28;20063;-80
2022/07/06 00:52:02;;;;;;;3.30;1.38;;;;;;;24.95;26.85;102084.72;5044842;28;20106;-79
2022/07/06 00:54:31;;;;;;;2.95;1.50;;;;;;;24.96;27.09;102080.03;5059010;28;20078;-80
2022/07/06 00:56:58;;;;;;;2.35;1.40;;;;;;;24.91;26.90;102079.69;5047551;28;20510;-79
2022/07/06 00:59:24;;;;;;;2.70;1.30;;;;;;;24.88;26.74;102083.63;5051505;28;20384;-79
2022/07/06 01:01:51;;;;;;;2.97;1.52;;;;;;;24.85;26.90;102085.88;5052912;28;20068;-80
2022/07/06 01:04:18;;;;;;;2.22;1.17;;;;;;;24.84;27.07;102095.25;5051882;28;20049;-80
2022/07/06 01:06:46;;;;;;;3.25;1.77;;;;;;;24.83;27.16;102090.72;5053169;28;20048;-80
2022/07/06 01:09:13;;;;;;;2.97;1.60;;;;;;;24.80;26.78;102096.59;5042209;28;20106;-79
2022/07/06 01:11:40;;;;;;;4.82;1.48;;;;;;;24.78;27.15;102096.78;5048897;28;20107;-80
2022/07/06 01:14:08;;;;;;;2.83;1.42;;;;;;;24.77;27.18;102094.16;5045352;28;20071;-79
2022/07/06 01:16:35;;;;;;;2.63;1.50;;;;;;;24.73;27.00;102087.19;5044287;28;20049;-80
2022/07/06 01:19:02;;;;;;;3.03;1.60;;;;;;;24.71;27.08;102086.50;5045185;28;20474;-79
2022/07/06 01:21:28;;;;;;;2.95;1.40;;;;;;;24.69;26.92;102088.56;5048477;28;20049;-79
2022/07/06 01:23:55;;;;;;;3.78;1.60;;;;;;;24.67;27.05;102088.72;5047070;28;20496;-80
2022/07/06 01:26:22;;;;;;;3.17;1.50;;;;;;;24.63;27.23;102085.38;5050804;28;20406;-79
2022/07/06 01:28:50;;;;;;;3.10;1.33;;;;;;;24.63;27.22;102093.72;5045437;28;20134;-79
2022/07/06 01:31:20;;;;;;;2.22;1.30;;;;;;;24.60;27.54;102090.41;5045716;28;20045;-80
2022/07/06 01:33:49;;;;;;;3.55;1.40;;;;;;;24.58;27.49;102087.81;5046918;28;20072;-80
2022/07/06 01:36:15;;;;;;;3.58;1.60;;;;;;;24.54;27.11;102091.09;5050217;28;20131;-80
2022/07/06 01:38:52;;;;;;;2.53;1.30;;;;;;;24.55;27.71;102090.03;5049780;28;20045;-80
2022/07/06 01:41:19;;;;;;;3.25;1.65;;;;;;;24.50;27.08;102089.66;5046613;28;20127;-79
2022/07/06 01:43:47;;;;;;;2.35;1.23;;;;;;;24.48;27.35;102086.16;5045113;28;20045;-80
2022/07/06 01:46:14;;;;;;;4.88;1.58;;;;;;;24.46;27.69;102078.00;5042999;28;20087;-80
2022/07/06 01:48:41;;;;;;;2.63;1.40;;;;;;;24.45;27.60;102084.59;5048133;28;20407;-80
2022/07/06 01:51:08;;;;;;;2.42;1.60;;;;;;;24.42;27.46;102079.38;5042704;28;20137;-80
2022/07/06 01:53:35;;;;;;;2.45;1.45;;;;;;;24.41;27.43;102079.53;5044673;28;20619;-80
2022/07/06 01:56:02;;;;;;;2.35;1.48;;;;;;;24.39;27.91;102076.91;5048867;28;20084;-80
2022/07/06 01:58:28;;;;;;;2.30;1.30;;;;;;;24.37;27.73;102081.78;5051649;28;20057;-80
2022/07/06 02:00:55;;;;;;;2.85;1.67;;;;;;;24.36;27.52;102074.47;5038259;28;20052;-80
2022/07/06 02:03:22;;;;;;;1.85;1.35;;;;;;;24.34;27.45;102081.22;5051551;28;20244;-80
2022/07/06 02:05:49;;;;;;;2.00;1.27;;;;;;;24.32;27.91;102075.81;5054066;28;20135;-80
2022/07/06 02:08:15;;;;;;;3.47;1.50;;;;;;;24.30;27.45;102077.88;5040990;28;20121;-80
2022/07/06 02:10:42;;;;;;;3.78;1.48;;;;;;;24.28;27.71;102071.63;5062494;28;20098;-80
2022/07/06 02:13:09;;;;;;;2.90;1.60;;;;;;;24.26;27.69;102079.25;5045447;28;20582;-80
2022/07/06 02:15:35;;;;;;;2.38;1.75;;;;;;;24.24;27.78;102081.31;5047097;28;20079;-80
2022/07/06 02:18:02;;;;;;;2.08;1.50;;;;;;;24.21;27.77;102081.66;5048919;28;20063;-80
2022/07/06 02:20:29;;;;;;;2.20;1.52;;;;;;;24.18;27.95;102079.16;5051148;28;20537;-79
2022/07/06 02:22:56;;;;;;;3.22;1.77;;;;;;;24.17;28.13;102082.97;5054326;28;20449;-80
2022/07/06 02:25:22;;;;;;;2.58;1.50;;;;;;;24.14;27.97;102077.72;5048737;28;20111;-80
2022/07/06 02:27:49;;;;;;;2.78;1.55;;;;;;;24.11;28.05;102084.47;5044214;28;20067;-79
2022/07/06 02:30:17;;;;;;;2.67;1.70;;;;;;;24.09;27.89;102085.66;5047291;28;20237;-79
2022/07/06 02:32:43;;;;;;;3.42;1.70;;;;;;;24.06;28.19;102081.31;5042143;28;20060;-80
2022/07/06 02:35:10;;;;;;;3.72;1.60;;;;;;;24.05;28.50;102087.88;5048262;28;20087;-79
2022/07/06 02:37:37;;;;;;;2.70;1.70;;;;;;;24.02;28.25;102077.13;5046712;28;20072;-80
2022/07/06 02:40:04;;;;;;;4.07;1.70;;;;;;;24.02;28.42;102079.03;5056690;28;20049;-79
2022/07/06 02:42:31;;;;;;;4.10;1.73;;;;;;;23.98;28.25;102077.59;5051012;28;20124;-79
2022/07/06 02:44:57;;;;;;;3.08;1.75;;;;;;;23.97;28.56;102084.16;5049013;28;20079;-80
2022/07/06 02:47:26;;;;;;;3.53;1.88;;;;;;;23.95;28.80;102075.16;5052001;28;20470;-80
2022/07/06 02:49:53;;;;;;;3.13;1.80;;;;;;;23.94;28.78;102076.19;5046638;28;20100;-80
2022/07/06 02:52:19;;;;;;;3.35;1.75;;;;;;;23.91;28.93;102085.69;5050054;28;20506;-80
2022/07/06 02:54:46;;;;;;;3.30;1.58;;;;;;;23.89;28.78;102077.50;5056828;28;20482;-79
2022/07/06 02:57:13;;;;;;;2.80;1.80;;;;;;;23.87;28.52;102079.59;5045301;28;20083;-80
2022/07/06 02:59:39;;;;;;;2.90;1.80;;;;;;;23.85;28.62;102081.66;5051536;28;20135;-80
2022/07/06 03:02:06;;;;;;;2.92;1.75;;;;;;;23.83;28.96;102085.59;5046158;28;20127;-80
2022/07/06 03:04:34;;;;;;;2.53;1.42;;;;;;;23.82;28.94;102089.41;5055582;28;20578;-80
2022/07/06 03:07:00;;;;;;;2.47;1.50;;;;;;;23.80;28.88;102091.50;5046765;28;20132;-79
2022/07/06 03:09:27;;;;;;;2.78;1.70;;;;;;;23.77;29.09;102092.66;5070058;28;20442;-80
2022/07/06 03:11:54;;;;;;;2.85;1.73;;;;;;;23.75;28.78;102094.72;5056636;28;20053;-80
2022/07/06 03:14:21;;;;;;;3.63;1.80;;;;;;;23.74;28.94;102090.19;5046644;28;20068;-80
2022/07/06 03:16:47;;;;;;;3.03;1.75;;;;;;;23.72;28.84;102095.03;5042832;28;20148;-80
2022/07/06 03:19:17;;;;;;;2.67;1.65;;;;;;;23.70;28.73;102097.09;5036397;28;20049;-80
2022/07/06 03:21:43;;;;;;;3.35;1.83;;;;;;;23.69;29.42;102100.03;5055908;28;20053;-80
2022/07/06 03:24:10;;;;;;;2.65;1.70;;;;;;;23.66;28.84;102101.22;5049688;28;20175;-80
2022/07/06 03:26:37;;;;;;;4.05;1.73;;;;;;;23.64;29.14;102096.84;5043183;28;20049;-81
2022/07/06 03:29:03;;;;;;;3.75;1.80;;;;;;;23.62;29.05;102108.13;5048886;28;20076;-80
2022/07/06 03:31:30;;;;;;;3.50;1.65;;;;;;;23.60;29.30;102100.97;5047069;28;20080;-80
2022/07/06 03:33:56;;;;;;;3.00;1.83;;;;;;;23.58;29.09;102101.13;5045243;28;20055;-80
2022/07/06 03:36:23;;;;;;;3.20;1.75;;;;;;;23.56;29.02;102105.94;5039973;28;20053;-80
2022/07/06 03:38:50;;;;;;;3.95;2.15;;;;;;;23.53;29.71;102109.06;5062910;28;20529;-80
2022/07/06 03:41:16;;;;;;;3.20;1.90;;;;;;;23.50;29.46;102101.91;5048241;28;20083;-80
2022/07/06 03:43:43;;;;;;;2.90;1.95;;;;;;;23.48;29.35;102101.19;5053424;28;20500;-80
2022/07/06 03:46:09;;;;;;;3.28;1.83;;;;;;;23.45;29.80;102103.38;5038021;28;20488;-79
2022/07/06 03:48:36;;;;;;;2.60;1.70;;;;;;;23.44;29.44;102105.28;5046229;28;20069;-80
2022/07/06 03:51:02;;;;;;;2.97;1.67;;;;;;;23.43;29.92;102105.44;5039724;28;20124;-80
2022/07/06 03:53:29;;;;;;;4.32;1.80;;;;;;;23.40;29.84;102112.16;5046897;28;20051;-80
2022/07/06 03:58:42;;;;;;;4.00;2.00;;;;;;;23.35;29.93;102108.09;5048923;28;20454;-80
2022/07/06 04:01:08;;;;;;;3.75;1.73;;;;;;;23.34;29.67;102110.00;5046036;28;20052;-79
2022/07/06 04:03:35;;;;;;;2.45;1.60;;;;;;;23.33;29.80;102105.50;5051537;28;20047;-80
2022/07/06 04:06:01;;;;;;;4.72;1.63;;;;;;;23.32;30.02;102108.41;5041102;28;20120;-80
2022/07/06 04:08:28;;;;;;;3.05;1.60;;;;;;;23.31;30.11;102110.31;5064625;28;20143;-80
2022/07/06 04:10:55;;;;;;;4.03;1.52;;;;;;;23.29;29.85;102106.84;5045847;28;20124;-79
2022/07/06 04:13:22;;;;;;;3.25;1.70;;;;;;;23.28;29.86;102112.53;5045339;28;20083;-80
2022/07/06 04:15:48;;;;;;;3.58;1.77;;;;;;;23.27;29.93;102117.19;5045771;28;20546;-80
2022/07/06 04:18:15;;;;;;;3.88;1.70;;;;;;;23.26;30.06;102115.44;5046874;28;20464;-80
2022/07/06 04:20:42;;;;;;;4.10;1.88;;;;;;;23.25;30.18;102105.38;5046846;28;20067;-79
2022/07/06 04:23:08;;;;;;;4.38;1.98;;;;;;;23.24;30.51;102106.41;5045398;28;20072;-80
2022/07/06 04:25:35;;;;;;;3.38;2.00;;;;;;;23.23;30.26;102115.75;5044312;28;20485;-79
2022/07/06 04:28:02;;;;;;;3.55;1.63;;;;;;;23.22;30.19;102115.94;5048342;28;20053;-81
2022/07/06 04:30:29;;;;;;;3.70;1.70;;;;;;;23.22;30.18;102118.69;5042259;28;20053;-79
2022/07/06 04:32:58;;;;;;;2.70;1.60;;;;;;;23.20;30.54;102117.97;5047825;28;20131;-80
2022/07/06 04:35:27;;;;;;;4.30;1.77;;;;;;;23.21;30.62;102115.06;5046237;28;20064;-80
2022/07/06 04:37:54;;;;;;;3.95;1.58;;;;;;;23.17;30.52;102121.91;5051245;28;20044;-79
2022/07/06 04:40:21;;;;;;;3.08;1.50;;;;;;;23.16;30.44;102120.16;5058838;28;20037;-81
2022/07/06 04:42:47;;;;;;;3.17;1.60;;;;;;;23.15;30.71;102124.84;5042222;28;20049;-79
2022/07/06 04:45:16;;;;;;;4.32;1.70;;;;;;;23.14;30.51;102123.09;5062634;28;20041;-81
2022/07/06 04:47:44;;;;;;;2.80;1.58;;;;;;;23.14;30.88;102119.47;5041072;28;20114;-79
2022/07/06 04:50:11;;;;;;;3.17;1.50;;;;;;;23.15;30.59;102124.84;5052623;28;20471;-80
2022/07/06 04:52:38;;;;;;;3.55;1.60;;;;;;;23.13;30.77;102124.13;5043793;28;20107;-81
2022/07/06 04:55:05;;;;;;;3.13;1.55;;;;;;;23.14;30.90;102117.53;5047181;28;20091;-81
2022/07/06 04:57:32;;;;;;;3.50;1.63;;;;;;;23.15;30.83;102118.41;5045403;28;20155;-80
2022/07/06 04:59:59;;;;;;;3.90;1.80;;;;;;;23.14;30.85;102122.25;5045275;28;20049;-80
2022/07/06 05:02:25;;;;;;;3.08;1.50;;;;;;;23.15;31.11;102118.41;5045074;28;20134;-79
2022/07/06 05:04:52;;;;;;;4.55;1.70;;;;;;;23.16;31.24;102120.16;5047211;28;20509;-79
2022/07/06 05:07:19;;;;;;;2.20;1.40;;;;;;;23.17;30.73;102116.38;5042225;28;20128;-79
2022/07/06 05:09:46;;;;;;;3.58;1.73;;;;;;;23.19;31.31;102124.53;5045688;28;20131;-80
2022/07/06 05:12:17;;;;;;;3.80;1.75;;;;;;;23.20;31.00;102129.06;5046107;28;20048;-80
2022/07/06 05:14:44;;;;;;;3.80;1.50;;;;;;;23.21;30.94;102116.94;5048158;28;20373;-79
2022/07/06 05:17:12;;;;;;;3.67;1.50;;;;;;;23.23;30.98;102112.97;5042232;28;20099;-80
2022/07/06 05:19:39;;;;;;;3.17;1.30;;;;;;;23.24;31.09;102125.81;5047692;28;20171;-79
2022/07/06 05:22:06;;;;;;;3.15;1.50;;;;;;;23.27;31.17;102119.09;5047140;28;20266;-80
2022/07/06 05:24:32;;;;;;;2.80;1.60;;;;;;;23.29;31.08;102122.59;5047742;28;20182;-80
2022/07/06 05:26:59;;;;;;;2.50;1.40;;;;;;;23.31;31.33;102126.06;5048315;28;20136;-79
2022/07/06 05:29:25;;;;;;;2.40;1.40;;;;;;;23.34;31.32;102128.53;5044041;28;20072;-80
2022/07/06 05:31:52;;;;;;;3.20;1.60;;;;;;;23.37;31.40;102128.25;5041840;28;20475;-80
2022/07/06 05:34:19;;;;;;;4.15;1.60;;;;;;;23.39;31.09;102129.81;5038368;28;20047;-81
2022/07/06 05:36:45;;;;;;;2.95;1.50;;;;;;;23.42;31.32;102123.09;5046237;28;20045;-81
2022/07/06 05:39:12;;;;;;;2.97;1.60;;;;;;;23.45;31.46;102131.09;5034794;28;20045;-80
2022/07/06 05:41:38;;;;;;;4.72;1.50;;;;;;;23.47;31.24;102137.38;5046692;28;20145;-81
2022/07/06 05:44:05;;;;;;;2.55;1.40;;;;;;;23.50;31.52;102128.75;5057411;28;20428;-81
2022/07/06 05:46:32;;;;;;;4.68;1.75;;;;;;;23.55;31.47;102126.41;5041226;28;20041;-81
2022/07/06 05:51:47;;;;;;;3.03;1.58;;;;;;;23.62;31.27;102137.75;5049925;28;20077;-81
2022/07/06 05:54:13;;;;;;;2.80;1.55;;;;;;;23.67;31.31;102138.13;5048373;28;20045;-80
2022/07/06 05:56:40;;;;;;;2.55;1.50;;;;;;;23.71;31.07;102137.69;5055663;28;20049;-79
2022/07/06 05:59:07;;;;;;;3.47;1.50;;;;;;;23.76;31.08;102129.75;5055851;28;20075;-79
2022/07/06 06:01:34;;;;;;;3.40;1.42;;;;;;;23.80;31.15;102128.38;5052816;28;20053;-78
2022/07/06 06:04:00;;;;;;;1.90;1.20;;;;;;;23.86;31.10;102138.00;5046008;28;20044;-79
2022/07/06 06:06:27;;;;;;;3.25;1.67;;;;;;;23.91;31.27;102135.63;5050022;28;20048;-79
2022/07/06 06:08:53;;;;;;;4.85;1.65;;;;;;;23.97;30.89;102139.66;5048451;28;20072;-78
2022/07/06 06:11:20;;;;;;;3.90;1.40;;;;;;;24.03;30.93;102139.91;5052163;28;20560;-78
2022/07/06 06:13:47;;;;;;;2.40;1.33;;;;;;;24.10;31.30;102137.38;5057252;28;20048;-81
2022/07/06 06:16:15;;;;;;;3.15;1.33;;;;;;;24.18;30.83;102145.75;5044984;28;20045;-78
2022/07/06 06:18:42;;;;;;;2.33;1.10;;;;;;;24.26;30.81;102145.88;5050661;28;20094;-79
2022/07/06 06:21:09;;;;;;;3.50;1.13;;;;;;;24.34;30.90;102154.25;5049742;28;20049;-79
2022/07/06 06:23:36;;;;;;;3.80;1.10;;;;;;;24.43;30.74;102147.75;5045524;28;20053;-79
2022/07/06 06:26:02;;;;;;;2.35;1.08;;;;;;;24.51;30.91;102146.94;5051047;28;20507;-79
2022/07/06 06:28:29;;;;;;;2.70;1.20;;;;;;;24.59;30.64;102149.78;5051993;28;20076;-80
2022/07/06 06:30:56;;;;;;;3.10;1.33;;;;;;;24.68;30.94;102148.78;5050737;28;20095;-80
2022/07/06 06:33:22;;;;;;;2.70;1.10;;;;;;;24.76;30.32;102147.97;5049263;28;20454;-80
2022/07/06 06:35:51;;;;;;;2.40;1.27;;;;;;;24.86;30.53;102148.75;5044958;28;20053;-78
2022/07/06 06:38:20;;;;;;;1.90;0.93;;;;;;;24.91;30.15;102151.91;5047280;28;20128;-81
2022/07/06 06:40:47;;;;;;;2.75;1.05;;;;;;;24.95;30.42;102148.63;5057760;28;20068;-80
2022/07/06 06:43:14;;;;;;;1.85;1.00;;;;;;;25.02;30.31;102148.88;5061231;28;20044;-80
2022/07/06 06:45:41;;;;;;;3.17;0.95;;;;;;;25.06;30.06;102157.72;5050476;28;20076;-80
2022/07/06 06:48:08;;;;;;;2.85;1.20;;;;;;;25.10;29.94;102153.59;5045263;28;20463;-80
2022/07/06 06:50:42;;;;;;;3.08;1.10;;;;;;;25.13;30.31;102151.34;5041613;28;20372;-80
2022/07/06 06:53:09;;;;;;;1.80;0.82;;;;;;;25.19;30.17;102150.69;5064467;28;20126;-81
2022/07/06 06:55:35;;;;;;;2.83;1.10;;;;;;;25.23;29.75;102154.00;5061264;28;20391;-81
2022/07/06 06:58:02;;;;;;;2.92;0.98;;;;;;;25.26;29.99;102151.78;5046109;28;20141;-81
2022/07/06 07:00:29;;;;;;;2.63;0.93;;;;;;;25.28;29.80;102155.22;5045852;28;20453;-81
2022/07/06 07:02:55;;;;;;;1.90;0.85;;;;;;;25.30;29.97;102158.72;5051571;28;20090;-81
2022/07/06 07:05:23;;;;;;;2.53;1.00;;;;;;;25.34;29.62;102159.28;5066157;28;20449;-80
2022/07/06 07:07:50;;;;;;;2.40;0.70;;;;;;;25.35;29.22;102166.56;5056544;28;20622;-79
2022/07/06 07:10:16;;;;;;;2.33;1.00;;;;;;;25.34;29.53;102168.47;5049277;28;20076;-79
2022/07/06 07:12:47;;;;;;;2.28;1.00;;;;;;;25.37;28.86;102164.47;5033993;28;20049;-79
2022/07/06 07:15:15;;;;;;;2.15;0.90;;;;;;;25.34;29.25;102168.47;5053058;28;20053;-84
2022/07/06 07:17:42;;;;;;;3.10;0.90;;;;;;;25.32;29.19;102159.44;5059321;28;20052;-80
2022/07/06 07:20:09;;;;;;;1.85;0.90;;;;;;;25.30;29.37;102161.50;5055136;28;20124;-79
2022/07/06 07:22:36;;;;;;;0.73;0.60;;;;;;;25.28;29.00;102158.00;5058641;28;20465;-80
2022/07/06 07:25:03;;;;;;;1.35;0.80;;;;;;;25.28;28.75;102165.50;5040883;28;20092;-80
2022/07/06 07:27:29;;;;;;;2.90;0.90;;;;;;;25.27;28.69;102169.31;5039758;28;20096;-81
2022/07/06 07:29:56;;;;;;;1.92;0.90;;;;;;;25.26;29.23;102168.44;5049011;28;20106;-82
2022/07/06 07:32:23;;;;;;;1.77;0.70;;;;;;;25.25;28.96;102163.94;5045039;28;20042;-81
2022/07/06 07:34:50;;;;;;;1.30;0.70;;;;;;;25.24;29.17;102175.22;5042834;28;20053;-81
2022/07/06 07:37:16;;;;;;;1.80;0.68;;;;;;;25.22;28.93;102169.81;5045981;28;21269;-82
2022/07/06 07:39:43;;;;;;;1.75;0.70;;;;;;;25.22;29.14;102166.16;5056384;28;20079;-80
2022/07/06 07:42:10;;;;;;;1.50;0.60;;;;;;;25.22;28.86;102178.16;5046317;28;20557;-82
2022/07/06 07:44:43;;;;;;;1.25;0.60;;;;;;;25.21;29.38;102164.41;5066757;28;20045;-82
2022/07/06 07:47:10;;;;;;;2.92;0.70;;;;;;;25.22;29.30;102166.16;5044537;28;20053;-82
2022/07/06 07:49:36;;;;;;;1.88;0.70;;;;;;;25.23;29.08;102173.47;5060446;28;20053;-79
2022/07/06 07:52:03;;;;;;;1.48;0.70;;;;;;;25.24;28.99;102172.41;5050848;28;20099;-81
2022/07/06 07:54:30;;;;;;;1.63;0.75;;;;;;;25.26;29.29;102176.78;5049919;28;20049;-80
2022/07/06 07:56:59;;;;;;;1.70;0.60;;;;;;;25.28;29.24;102171.91;5051834;28;20388;-80
2022/07/06 07:59:34;;;;;;;2.80;1.00;;;;;;;25.35;29.14;102167.44;5050598;28;20116;-80
2022/07/06 08:02:01;;;;;;;2.03;0.77;;;;;;;25.35;29.63;102175.78;5042809;28;20041;-79
2022/07/06 08:04:27;;;;;;;5.30;1.15;;;;;;;25.40;29.67;102172.50;5036500;28;20163;-78
2022/07/06 08:06:54;;;;;;;2.80;1.08;;;;;;;25.43;29.25;102180.50;5063257;28;20179;-79
2022/07/06 08:09:27;;;;;;;3.30;1.02;;;;;;;25.46;29.20;102169.03;5048101;28;20060;-78
2022/07/06 08:11:53;;;;;;;3.58;0.90;;;;;;;25.50;28.97;102177.94;5062648;28;20052;-79
2022/07/06 08:14:20;;;;;;;2.50;0.70;;;;;;;25.54;29.10;102171.84;5068729;28;20182;-79
2022/07/06 08:16:50;;;;;;;1.25;0.80;;;;;;;25.61;29.13;102175.72;5051029;28;20136;-79
2022/07/06 08:19:16;;;;;;;2.40;0.88;;;;;;;25.61;29.29;102170.16;5042588;28;20044;-81
2022/07/06 08:21:43;;;;;;;1.13;0.60;;;;;;;25.65;28.93;102166.03;5083045;28;20102;-80
2022/07/06 08:24:11;;;;;;;1.15;0.73;;;;;;;25.69;28.93;102170.22;5045745;28;20045;-81
2022/07/06 08:26:37;;;;;;;1.05;0.68;;;;;;;25.71;28.77;102168.13;5057546;28;20109;-80
2022/07/06 08:29:04;;;;;;;1.33;0.68;;;;;;;25.76;29.19;102167.63;5040900;28;20127;-81
2022/07/06 08:31:33;;;;;;;2.20;0.70;;;;;;;25.78;29.11;102171.97;5045042;28;20088;-81
2022/07/06 08:34:20;;;;;;;1.80;0.70;;;;;;;25.80;28.82;102159.78;5044654;28;20491;-80
2022/07/06 08:36:47;;;;;;;0.85;0.50;;;;;;;25.84;28.86;102155.63;5042250;28;20579;-79
2022/07/06 08:39:13;;;;;;;1.10;0.60;;;;;;;25.87;28.70;102158.06;5045932;28;20045;-82
2022/07/06 08:41:47;;;;;;;0.77;0.40;;;;;;;25.95;28.11;102156.16;5055683;28;20411;-81
2022/07/06 08:44:19;;;;;;;2.55;0.60;;;;;;;26.02;27.90;102159.16;5060113;28;20041;-81
2022/07/06 08:46:49;;;;;;;1.23;0.60;;;;;;;26.06;27.97;102154.97;5056869;28;20107;-81
2022/07/06 08:49:17;;;;;;;1.67;0.68;;;;;;;26.11;28.22;102160.88;5048668;28;20136;-80
2022/07/06 08:51:45;;;;;;;1.83;0.50;;;;;;;26.18;28.13;102161.09;5051528;28;20099;-80
2022/07/06 08:54:12;;;;;;;1.55;0.60;;;;;;;26.22;27.60;102154.13;5053965;28;20052;-81
2022/07/06 08:56:39;;;;;;;1.45;0.70;;;;;;;26.26;27.57;102162.00;5055513;28;20053;-82
2022/07/06 08:59:15;;;;;;;2.10;0.60;;;;;;;26.30;27.25;102159.72;5044412;28;20081;-83
2022/07/06 09:01:44;;;;;;;1.73;0.70;;;;;;;26.33;27.25;102163.03;5042968;28;20049;-82
2022/07/06 09:04:12;;;;;;;1.42;0.50;;;;;;;26.34;27.08;102162.00;5061641;28;20048;-80
2022/07/06 09:06:42;;;;;;;2.67;0.60;;;;;;;26.35;26.84;102166.53;5050951;28;20480;-81
2022/07/06 09:09:09;;;;;;;0.77;0.50;;;;;;;26.34;27.19;102164.78;5047469;28;20044;-81
2022/07/06 09:11:37;;;;;;;1.77;0.52;;;;;;;26.32;27.43;102166.88;5064642;28;20140;-80
2022/07/06 09:14:04;;;;;;;0.93;0.50;;;;;;;26.32;27.17;102168.78;5057823;28;20052;-82
2022/07/06 09:16:30;;;;;;;1.90;0.65;;;;;;;26.32;27.16;102163.22;5059401;28;20492;-81
2022/07/06 09:19:07;;;;;;;1.67;0.50;;;;;;;26.31;26.80;102170.69;5030033;28;20120;-82
2022/07/06 09:21:36;;;;;;;1.00;0.57;;;;;;;26.28;27.01;102165.44;5035563;28;20437;-81
2022/07/06 09:24:11;;;;;;;1.25;0.60;;;;;;;26.31;26.75;102155.91;5065343;28;20049;-82
2022/07/06 09:26:39;;;;;;;0.70;0.40;;;;;;;26.27;26.71;102160.09;5052453;28;20052;-82
2022/07/06 09:29:06;;;;;;;1.20;0.45;;;;;;;26.29;27.11;102156.06;5058683;28;20057;-81
2022/07/06 09:31:33;;;;;;;2.50;0.50;;;;;;;26.33;26.94;102162.16;5056086;28;20049;-82
2022/07/06 09:34:05;;;;;;;0.65;0.50;;;;;;;26.37;26.42;102156.06;5056233;28;20056;-82
2022/07/06 09:36:46;;;;;;;0.60;0.40;;;;;;;26.40;26.11;102154.84;5057483;28;20048;-83
2022/07/06 09:39:29;;;;;;;1.17;0.57;;;;;;;26.45;25.99;102156.06;5057137;28;20441;-81
2022/07/06 09:41:58;;;;;;;0.63;0.50;;;;;;;26.48;26.35;102157.63;5046704;28;20072;-80
2022/07/06 09:44:33;;;;;;;1.42;0.60;;;;;;;26.53;25.34;102156.06;5050714;28;20055;-81
2022/07/06 09:47:05;;;;;;;1.08;0.50;;;;;;;26.57;25.64;102152.94;5068705;28;20049;-81
2022/07/06 09:49:39;;;;;;;1.70;0.40;;;;;;;26.58;25.56;102155.53;5025849;28;20695;-81
2022/07/06 09:52:15;;;;;;;0.70;0.60;;;;;;;26.60;25.81;102145.09;5058508;28;20102;-82
2022/07/06 09:58:27;;;;;;;0.75;0.50;;;;;;;26.66;25.77;102155.53;5017967;28;20056;-81
2022/07/06 10:01:30;;;;;;;1.20;0.60;;;;;;;26.68;25.87;102150.66;5042543;28;20046;-81
2022/07/06 10:04:15;;;;;;;1.48;0.50;;;;;;;26.70;25.70;102156.91;5013511;28;20041;-81
2022/07/06 10:06:44;;;;;;;0.55;0.40;;;;;;;26.70;25.78;102142.97;5026945;28;20053;-81
2022/07/06 10:09:12;;;;;;;1.30;0.50;;;;;;;26.73;26.05;102139.84;5024791;28;20113;-74
2022/07/06 10:11:42;;;;;;;2.28;0.70;;;;;;;26.78;25.70;102151.31;5024290;28;20073;-74
2022/07/06 10:14:11;;;;;;;2.22;0.70;;;;;;;26.83;25.46;102150.81;5025110;28;20148;-74
2022/07/06 10:16:38;;;;;;;0.98;0.65;;;;;;;26.86;26.03;102145.72;5025312;28;20077;-72
2022/07/06 10:19:09;;;;;;;0.73;0.57;;;;;;;26.96;25.35;102151.13;5028535;28;20563;-73
2022/07/06 10:21:37;;;;;;;1.83;0.70;;;;;;;27.00;25.88;102149.75;5024479;28;20061;-73
2022/07/06 10:24:05;;;;;;;2.30;0.90;;;;;;;27.07;25.77;102150.78;5026155;28;20065;-73
2022/07/06 10:26:34;;;;;;;2.08;0.70;;;;;;;27.13;25.35;102149.16;5027865;28;20077;-72
2022/07/06 10:29:02;;;;;;;1.10;0.80;;;;;;;27.18;25.42;102139.22;5003634;28;20131;-72
2022/07/06 10:31:30;;;;;;;1.63;0.98;;;;;;;27.22;24.58;102131.38;5025703;28;20620;-73
2022/07/06 10:33:58;;;;;;;1.27;0.93;;;;;;;27.25;24.65;102145.84;5035777;28;20049;-72
2022/07/06 10:36:25;;;;;;;2.30;0.88;;;;;;;27.25;24.73;102151.41;5053753;28;20480;-72
2022/07/06 10:38:52;;;;;;;2.13;0.70;;;;;;;27.28;25.27;102155.72;5059417;28;20128;-73
2022/07/06 10:41:31;;;;;;;1.33;0.77;;;;;;;27.33;24.63;102144.06;5049047;28;20541;-72
2022/07/06 10:44:14;;;;;;;2.08;0.70;;;;;;;27.33;24.63;102146.84;5039031;28;20053;-82
2022/07/06 10:46:41;;;;;;;2.08;0.80;;;;;;;27.35;24.76;102147.50;5048225;28;20057;-83
2022/07/06 10:49:16;;;;;;;1.88;0.77;;;;;;;27.43;23.87;102147.47;5055324;28;20071;-81
2022/07/06 10:52:05;;;;;;;1.08;0.60;;;;;;;27.45;24.33;102149.03;5049810;28;20052;-82
2022/07/06 10:54:39;;;;;;;1.02;0.50;;;;;;;27.51;24.01;102141.84;5053484;28;20553;-81
2022/07/06 10:57:15;;;;;;;1.20;0.60;;;;;;;27.55;24.57;102138.56;5063782;28;20098;-81
2022/07/06 11:00:00;;;;;;;0.93;0.60;;;;;;;27.57;24.21;102141.19;5063043;28;20075;-82
2022/07/06 11:02:38;;;;;;;0.60;0.40;;;;;;;27.65;24.08;102138.34;5051192;28;20049;-82
2022/07/06 11:05:12;;;;;;;0.98;0.50;;;;;;;27.70;23.80;102144.22;5045823;28;20048;-81
2022/07/06 11:07:52;;;;;;;0.60;0.55;;;;;;;27.77;23.97;102141.56;5052587;28;20052;-82
2022/07/06 11:10:22;;;;;;;1.92;0.63;;;;;;;27.80;23.72;102130.03;5055384;28;20045;-81
2022/07/06 11:12:59;;;;;;;0.73;0.50;;;;;;;27.85;23.70;102128.44;5065769;28;20045;-81
2022/07/06 11:15:47;;;;;;;1.45;0.60;;;;;;;27.85;23.52;102134.00;5064022;28;20048;-81
2022/07/06 11:18:19;;;;;;;0.95;0.70;;;;;;;27.89;23.12;102140.97;5053287;28;20052;-83
2022/07/06 11:21:18;;;;;;;2.00;0.67;;;;;;;27.83;23.50;102143.66;5058102;28;20045;-82
2022/07/06 11:23:47;;;;;;;2.00;0.40;;;;;;;27.90;23.65;102128.75;5020570;28;20357;-83
2022/07/06 11:26:15;;;;;;;1.35;0.70;;;;;;;27.97;23.55;102123.28;5046398;28;20052;-83
2022/07/06 11:28:44;;;;;;;1.17;0.60;;;;;;;28.00;23.34;102122.94;5054805;28;20136;-84
2022/07/06 11:31:11;;;;;;;1.60;0.70;;;;;;;28.02;23.25;102115.22;5053419;28;20515;-82
2022/07/06 11:33:38;;;;;;;0.93;0.63;;;;;;;28.05;23.27;102123.22;5049253;28;20059;-83
2022/07/06 11:36:13;;;;;;;1.75;0.77;;;;;;;28.12;22.72;102117.75;5062563;28;20339;-84
2022/07/06 11:38:44;;;;;;;0.93;0.60;;;;;;;28.10;23.14;102123.53;5051233;28;20099;-82
2022/07/06 11:41:13;;;;;;;1.77;0.60;;;;;;;28.11;23.07;102128.06;5061742;28;20052;-80